Time;durP1;ratioP1;P1;durP2;ratioP2;P2;SDS_P1;SDS_P2;PMS_P1;PMS_P2;Temp;Humidity;BMP_temperature;BMP_pressure;BME280_temperature;BME280_humidity;BME280_pressure;Samples;Min_cycle;Max_cycle;Signal;HPM_P1;HPM_P2
2022/10/28 00:00:23;;;;;;;11.00;7.13;;;;;;;;;;5247440;28;20385;-66
2022/10/28 00:02:54;;;;;;;11.52;6.85;;;;;;;;;;5247785;28;20029;-66
2022/10/28 00:05:24;;;;;;;12.35;7.05;;;;;;;;;;5229677;28;20476;-66
2022/10/28 00:07:54;;;;;;;6.50;5.80;;;;;;;;;;5230176;28;20040;-66
2022/10/28 00:10:24;;;;;;;8.90;5.97;;;;;;;;;;5229699;28;20048;-66
2022/10/28 00:12:55;;;;;;;7.45;6.75;;;;;;;;;;5229734;28;20124;-64
2022/10/28 00:15:25;;;;;;;12.85;7.32;;;;;;;;;;5247334;28;20074;-65
2022/10/28 00:17:55;;;;;;;7.20;5.72;;;;;;;;;;5247081;28;20052;-66
2022/10/28 00:20:26;;;;;;;5.45;5.05;;;;;;;;;;5247715;28;20017;-65
2022/10/28 00:22:56;;;;;;;5.85;5.35;;;;;;;;;;5247502;28;20099;-65
2022/10/28 00:25:26;;;;;;;7.57;6.75;;;;;;;;;;5247109;28;20028;-66
2022/10/28 00:27:56;;;;;;;15.10;6.30;;;;;;;;;;5229232;28;20438;-66
2022/10/28 00:30:27;;;;;;;7.22;4.88;;;;;;;;;;5229141;28;20074;-71
2022/10/28 00:32:57;;;;;;;7.05;5.97;;;;;;;;;;5228930;28;20059;-66
2022/10/28 00:35:27;;;;;;;8.15;6.28;;;;;;;;;;5228826;28;20020;-67
2022/10/28 00:37:57;;;;;;;8.15;6.57;;;;;;;;;;5229288;28;20020;-67
2022/10/28 00:40:32;;;;;;;8.77;6.10;;;;;;;;;;5228339;28;20078;-67
2022/10/28 00:43:02;;;;;;;5.80;5.07;;;;;;;;;;5247047;28;20024;-68
2022/10/28 00:45:33;;;;;;;7.88;7.13;;;;;;;;;;5230761;22;20419;-81
2022/10/28 00:48:03;;;;;;;11.90;6.88;;;;;;;;;;5212958;28;20028;-83
2022/10/28 00:50:33;;;;;;;6.85;6.15;;;;;;;;;;5212788;28;20139;-82
2022/10/28 00:53:06;;;;;;;10.10;7.20;;;;;;;;;;5193733;28;20025;-80
2022/10/28 00:55:36;;;;;;;11.00;5.50;;;;;;;;;;5192773;28;20252;-81
2022/10/28 00:58:07;;;;;;;7.10;5.28;;;;;;;;;;5212869;28;20380;-80
2022/10/28 01:00:38;;;;;;;6.10;5.63;;;;;;;;;;5212496;28;20040;-83
2022/10/28 01:03:08;;;;;;;9.70;6.43;;;;;;;;;;5194698;28;20022;-83
2022/10/28 01:05:40;;;;;;;13.77;6.78;;;;;;;;;;5210464;28;20040;-80
2022/10/28 01:08:10;;;;;;;5.55;5.20;;;;;;;;;;5193027;28;20063;-81
2022/10/28 01:10:59;;;;;;;7.45;6.78;;;;;;;;;;5210813;28;20025;-80
2022/10/28 01:13:37;;;;;;;6.55;5.97;;;;;;;;;;5192883;28;20033;-82
2022/10/28 01:16:20;;;;;;;5.65;5.35;;;;;;;;;;5194431;28;20037;-81
2022/10/28 01:18:56;;;;;;;5.68;5.18;;;;;;;;;;5212625;28;20376;-81
2022/10/28 01:21:35;;;;;;;8.20;3.92;;;;;;;;;;5210192;28;20025;-84
2022/10/28 01:24:05;;;;;;;5.68;5.13;;;;;;;;;;5211887;28;20108;-84
2022/10/28 01:26:51;;;;;;;7.70;6.43;;;;;;;;;;5212414;28;20063;-81
2022/10/28 01:29:44;;;;;;;7.10;6.13;;;;;;;;;;5212835;28;20041;-82
2022/10/28 01:32:20;;;;;;;7.40;4.80;;;;;;;;;;5201399;28;20151;-82
2022/10/28 01:34:55;;;;;;;9.68;5.55;;;;;;;;;;5211385;28;20049;-86
2022/10/28 01:37:35;;;;;;;10.50;6.38;;;;;;;;;;5212350;28;20025;-84
2022/10/28 01:40:15;;;;;;;7.20;5.35;;;;;;;;;;5194709;28;20052;-82
2022/10/28 01:42:45;;;;;;;11.38;5.85;;;;;;;;;;5212614;28;20080;-82
2022/10/28 01:45:24;;;;;;;10.50;5.50;;;;;;;;;;5211005;28;20033;-82
2022/10/28 01:47:57;;;;;;;7.57;6.17;;;;;;;;;;5212903;28;20441;-82
2022/10/28 01:50:28;;;;;;;7.55;6.25;;;;;;;;;;5212957;28;20018;-85
2022/10/28 01:53:00;;;;;;;11.32;6.07;;;;;;;;;;5214743;28;20018;-83
2022/10/28 01:55:33;;;;;;;13.32;5.63;;;;;;;;;;5197422;28;20017;-83
2022/10/28 01:58:05;;;;;;;7.78;6.35;;;;;;;;;;5216193;28;20037;-81
2022/10/28 02:00:36;;;;;;;10.55;5.95;;;;;;;;;;5215540;28;20025;-81
2022/10/28 02:03:07;;;;;;;5.35;4.90;;;;;;;;;;5216625;28;20079;-84
2022/10/28 02:05:38;;;;;;;8.98;6.53;;;;;;;;;;5215719;28;20096;-81
2022/10/28 02:08:20;;;;;;;11.07;6.80;;;;;;;;;;5216060;28;20017;-82
2022/10/28 02:10:59;;;;;;;9.85;6.15;;;;;;;;;;5216957;28;20100;-84
2022/10/28 02:13:32;;;;;;;9.68;6.95;;;;;;;;;;5215324;28;20025;-81
2022/10/28 02:16:10;;;;;;;7.57;6.57;;;;;;;;;;5198298;28;20018;-83
2022/10/28 02:18:53;;;;;;;8.85;6.70;;;;;;;;;;5215501;28;20013;-83
2022/10/28 02:21:32;;;;;;;6.82;6.25;;;;;;;;;;5215260;28;20018;-82
2022/10/28 02:24:06;;;;;;;6.45;5.97;;;;;;;;;;5196884;28;20022;-81
2022/10/28 02:26:39;;;;;;;9.73;6.22;;;;;;;;;;5213819;28;20029;-82
2022/10/28 02:29:15;;;;;;;6.43;5.45;;;;;;;;;;5215656;28;20013;-82
2022/10/28 02:31:51;;;;;;;6.80;6.30;;;;;;;;;;5215860;28;20029;-82
2022/10/28 02:34:24;;;;;;;6.28;5.70;;;;;;;;;;5195961;28;20498;-82
2022/10/28 02:36:56;;;;;;;12.73;7.28;;;;;;;;;;5215524;28;20044;-87
2022/10/28 02:39:31;;;;;;;8.05;6.10;;;;;;;;;;5215265;28;20317;-83
2022/10/28 02:42:10;;;;;;;13.57;5.93;;;;;;;;;;5215096;28;20017;-83
2022/10/28 02:44:44;;;;;;;7.85;5.43;;;;;;;;;;5213537;28;20090;-82
2022/10/28 02:47:18;;;;;;;9.70;5.97;;;;;;;;;;5215218;28;20091;-81
2022/10/28 02:49:50;;;;;;;5.75;5.22;;;;;;;;;;5214441;28;20056;-81
2022/10/28 02:52:22;;;;;;;8.18;4.72;;;;;;;;;;5214642;28;20104;-84
2022/10/28 02:54:53;;;;;;;7.15;5.43;;;;;;;;;;5196556;28;20021;-81
2022/10/28 02:57:28;;;;;;;6.28;5.65;;;;;;;;;;5214776;28;20489;-84
2022/10/28 02:59:59;;;;;;;7.38;6.78;;;;;;;;;;5196852;28;20029;-82
2022/10/28 03:02:29;;;;;;;8.00;7.25;;;;;;;;;;5215123;28;20017;-82
2022/10/28 03:05:00;;;;;;;5.97;5.57;;;;;;;;;;5213787;28;20029;-82
2022/10/28 03:07:30;;;;;;;7.47;5.25;;;;;;;;;;5214819;28;20104;-83
2022/10/28 03:10:00;;;;;;;5.57;4.97;;;;;;;;;;5214760;28;20025;-83
2022/10/28 03:12:31;;;;;;;12.10;7.65;;;;;;;;;;5214752;28;20280;-83
2022/10/28 03:15:02;;;;;;;13.43;7.47;;;;;;;;;;5214354;28;20107;-80
2022/10/28 03:17:32;;;;;;;9.30;6.90;;;;;;;;;;5214643;28;20013;-83
2022/10/28 03:20:03;;;;;;;7.35;6.75;;;;;;;;;;5215115;28;20037;-84
2022/10/28 03:22:33;;;;;;;15.15;6.20;;;;;;;;;;5215291;28;20056;-82
2022/10/28 03:25:04;;;;;;;6.72;6.15;;;;;;;;;;5214269;28;20021;-82
2022/10/28 03:27:34;;;;;;;7.97;6.40;;;;;;;;;;5215531;28;20020;-82
2022/10/28 03:30:04;;;;;;;10.02;6.85;;;;;;;;;;5196583;28;20025;-82
2022/10/28 03:32:35;;;;;;;7.10;6.45;;;;;;;;;;5214503;28;20026;-81
2022/10/28 03:35:05;;;;;;;8.47;7.53;;;;;;;;;;5195450;28;20022;-85
2022/10/28 03:37:36;;;;;;;11.75;7.13;;;;;;;;;;5195578;28;20270;-82
2022/10/28 03:40:06;;;;;;;12.87;7.00;;;;;;;;;;5195277;28;20037;-80
2022/10/28 03:42:38;;;;;;;7.00;5.57;;;;;;;;;;5214070;28;20806;-81
2022/10/28 03:45:09;;;;;;;9.93;6.32;;;;;;;;;;5213118;28;20028;-80
2022/10/28 03:47:39;;;;;;;10.02;6.32;;;;;;;;;;5196539;28;20021;-84
2022/10/28 03:50:10;;;;;;;10.77;7.82;;;;;;;;;;5214159;28;20064;-80
2022/10/28 03:52:41;;;;;;;6.18;5.70;;;;;;;;;;5213495;28;20068;-80
2022/10/28 03:55:11;;;;;;;7.78;6.57;;;;;;;;;;5211513;28;20018;-80
2022/10/28 03:57:42;;;;;;;8.02;5.90;;;;;;;;;;5214542;28;20063;-81
2022/10/28 04:00:12;;;;;;;11.73;5.55;;;;;;;;;;5208376;28;20057;-79
2022/10/28 04:02:48;;;;;;;10.75;6.65;;;;;;;;;;5191628;28;20206;-83
2022/10/28 04:05:19;;;;;;;12.23;5.70;;;;;;;;;;5191557;28;20022;-80
2022/10/28 04:07:49;;;;;;;8.82;6.07;;;;;;;;;;5175274;28;20076;-80
2022/10/28 04:10:19;;;;;;;8.18;5.88;;;;;;;;;;5193152;28;20164;-83
2022/10/28 04:12:50;;;;;;;7.20;6.60;;;;;;;;;;5177455;28;20128;-81
2022/10/28 04:15:20;;;;;;;20.73;6.40;;;;;;;;;;5194888;28;20421;-80
2022/10/28 04:17:50;;;;;;;10.40;6.53;;;;;;;;;;5199237;28;20256;-81
2022/10/28 04:20:21;;;;;;;11.43;5.43;;;;;;;;;;5181832;28;20356;-81
2022/10/28 04:22:53;;;;;;;9.52;7.80;;;;;;;;;;5193540;28;20315;-80
2022/10/28 04:25:24;;;;;;;13.18;6.75;;;;;;;;;;5176514;28;20021;-83
2022/10/28 04:27:57;;;;;;;14.23;7.57;;;;;;;;;;5193011;28;20364;-83
2022/10/28 04:30:28;;;;;;;7.07;6.38;;;;;;;;;;5193998;28;20363;-82
2022/10/28 04:32:58;;;;;;;5.68;5.28;;;;;;;;;;5192829;28;20053;-82
2022/10/28 04:35:29;;;;;;;9.30;6.40;;;;;;;;;;5174295;28;20184;-82
2022/10/28 04:37:59;;;;;;;8.77;6.05;;;;;;;;;;5175987;28;20184;-80
2022/10/28 04:40:37;;;;;;;8.50;6.60;;;;;;;;;;5192011;28;20048;-79
2022/10/28 04:43:11;;;;;;;8.75;6.43;;;;;;;;;;5192083;28;20057;-80
2022/10/28 04:45:44;;;;;;;6.35;5.93;;;;;;;;;;5192278;28;20056;-81
2022/10/28 04:48:19;;;;;;;7.75;6.78;;;;;;;;;;5192499;28;20663;-80
2022/10/28 04:50:51;;;;;;;9.15;5.93;;;;;;;;;;5175410;28;20361;-82
2022/10/28 04:53:21;;;;;;;6.30;5.72;;;;;;;;;;5191253;28;20014;-81
2022/10/28 04:55:55;;;;;;;6.40;6.00;;;;;;;;;;5193365;28;20132;-81
2022/10/28 04:58:25;;;;;;;15.50;7.07;;;;;;;;;;5175889;28;20333;-83
2022/10/28 05:00:56;;;;;;;6.53;5.90;;;;;;;;;;5176080;28;20029;-82
2022/10/28 05:03:26;;;;;;;6.93;5.00;;;;;;;;;;5191492;28;20086;-80
2022/10/28 05:05:56;;;;;;;17.17;6.97;;;;;;;;;;5193640;28;20049;-81
2022/10/28 05:08:26;;;;;;;6.07;5.33;;;;;;;;;;5191482;28;20277;-80
2022/10/28 05:10:57;;;;;;;6.93;6.20;;;;;;;;;;5192464;28;20257;-81
2022/10/28 05:13:27;;;;;;;9.17;6.00;;;;;;;;;;5192304;28;20018;-81
2022/10/28 05:15:57;;;;;;;6.47;5.87;;;;;;;;;;5192182;28;20280;-83
2022/10/28 05:18:27;;;;;;;9.30;4.83;;;;;;;;;;5174794;28;20261;-83
2022/10/28 05:20:58;;;;;;;7.93;7.07;;;;;;;;;;5190687;28;20292;-82
2022/10/28 05:23:28;;;;;;;6.22;5.63;;;;;;;;;;5188809;28;20030;-82
2022/10/28 05:25:58;;;;;;;14.43;6.43;;;;;;;;;;5192029;28;20077;-83
2022/10/28 05:28:29;;;;;;;8.27;7.45;;;;;;;;;;5191849;28;20029;-83
2022/10/28 05:30:59;;;;;;;8.40;6.13;;;;;;;;;;5173878;28;20105;-82
2022/10/28 05:33:29;;;;;;;7.25;6.63;;;;;;;;;;5190134;28;20443;-83
2022/10/28 05:36:00;;;;;;;6.82;5.63;;;;;;;;;;5192695;28;20069;-83
2022/10/28 05:38:30;;;;;;;7.32;6.57;;;;;;;;;;5191733;28;20029;-83
2022/10/28 05:41:02;;;;;;;8.10;5.75;;;;;;;;;;5197038;28;20061;-82
2022/10/28 05:43:32;;;;;;;10.27;5.75;;;;;;;;;;5206533;28;20037;-83
2022/10/28 05:46:03;;;;;;;7.75;5.40;;;;;;;;;;5211254;28;20034;-83
2022/10/28 05:48:34;;;;;;;9.63;6.95;;;;;;;;;;5211758;28;20085;-83
2022/10/28 05:51:04;;;;;;;7.77;5.50;;;;;;;;;;5211004;28;20186;-82
2022/10/28 05:53:34;;;;;;;11.90;5.45;;;;;;;;;;5191997;28;20283;-82
2022/10/28 05:56:05;;;;;;;7.70;6.68;;;;;;;;;;5193617;28;20017;-81
2022/10/28 05:58:35;;;;;;;7.53;6.38;;;;;;;;;;5210940;28;20013;-82
2022/10/28 06:01:06;;;;;;;12.02;7.53;;;;;;;;;;5211329;28;20251;-82
2022/10/28 06:03:36;;;;;;;12.43;6.72;;;;;;;;;;5192898;28;20468;-85
2022/10/28 06:06:09;;;;;;;8.27;7.43;;;;;;;;;;5193105;28;20157;-84
2022/10/28 06:08:39;;;;;;;9.18;7.05;;;;;;;;;;5211914;28;20083;-82
2022/10/28 06:11:10;;;;;;;11.43;6.57;;;;;;;;;;5193126;28;20337;-82
2022/10/28 06:13:40;;;;;;;7.97;7.32;;;;;;;;;;5192362;28;20049;-83
2022/10/28 06:16:10;;;;;;;9.90;7.63;;;;;;;;;;5212409;28;20028;-84
2022/10/28 06:18:40;;;;;;;7.35;6.53;;;;;;;;;;5211440;28;20260;-82
2022/10/28 06:21:11;;;;;;;6.88;6.25;;;;;;;;;;5212426;28;20013;-84
2022/10/28 06:23:41;;;;;;;8.32;7.25;;;;;;;;;;5208830;28;20085;-82
2022/10/28 06:26:11;;;;;;;11.07;7.63;;;;;;;;;;5210978;28;20025;-81
2022/10/28 06:28:41;;;;;;;7.55;6.65;;;;;;;;;;5193249;28;20021;-83
2022/10/28 06:31:12;;;;;;;8.45;6.25;;;;;;;;;;5209890;28;20032;-79
2022/10/28 06:33:42;;;;;;;13.98;7.97;;;;;;;;;;5209202;28;20535;-81
2022/10/28 06:36:12;;;;;;;9.38;5.78;;;;;;;;;;5213161;28;20032;-80
2022/10/28 06:38:42;;;;;;;8.13;7.63;;;;;;;;;;5195703;28;20014;-83
2022/10/28 06:41:13;;;;;;;7.78;6.95;;;;;;;;;;5217345;28;20052;-83
2022/10/28 06:43:43;;;;;;;8.18;6.88;;;;;;;;;;5216522;28;20033;-84
2022/10/28 06:46:13;;;;;;;11.40;6.77;;;;;;;;;;5211847;28;20033;-84
2022/10/28 06:48:44;;;;;;;10.82;6.20;;;;;;;;;;5210505;23;20691;-69
2022/10/28 06:51:16;;;;;;;8.68;7.05;;;;;;;;;;5171786;28;20219;-68
2022/10/28 06:53:52;;;;;;;12.80;11.23;;;;;;;;;;5169022;28;20037;-68
2022/10/28 06:56:22;;;;;;;7.18;6.68;;;;;;;;;;5169095;28;20045;-68
2022/10/28 06:58:54;;;;;;;10.77;7.93;;;;;;;;;;5188193;28;20096;-69
2022/10/28 07:01:24;;;;;;;6.82;6.32;;;;;;;;;;5169368;28;20014;-67
2022/10/28 07:03:54;;;;;;;13.73;5.57;;;;;;;;;;5191430;28;20020;-68
2022/10/28 07:06:24;;;;;;;7.50;6.80;;;;;;;;;;5189916;28;20075;-68
2022/10/28 07:08:55;;;;;;;11.90;6.55;;;;;;;;;;5189684;28;20096;-68
2022/10/28 07:11:25;;;;;;;8.88;7.00;;;;;;;;;;5189854;28;20550;-70
2022/10/28 07:13:55;;;;;;;18.48;7.53;;;;;;;;;;5189921;28;20032;-69
2022/10/28 07:16:25;;;;;;;8.15;6.93;;;;;;;;;;5207584;28;20043;-69
2022/10/28 07:18:56;;;;;;;13.82;6.55;;;;;;;;;;5207390;28;20384;-69
2022/10/28 07:21:28;;;;;;;7.60;5.93;;;;;;;;;;5189722;28;20032;-69
2022/10/28 07:23:58;;;;;;;13.10;7.53;;;;;;;;;;5207893;28;20484;-69
2022/10/28 07:26:29;;;;;;;7.90;7.30;;;;;;;;;;5190264;28;20068;-68
2022/10/28 07:28:59;;;;;;;7.18;6.57;;;;;;;;;;5207234;28;20366;-68
2022/10/28 07:31:30;;;;;;;7.35;6.60;;;;;;;;;;5207339;28;20045;-67
2022/10/28 07:34:00;;;;;;;7.82;6.65;;;;;;;;;;5189115;28;20021;-68
2022/10/28 07:36:30;;;;;;;9.63;6.90;;;;;;;;;;5189490;28;20083;-69
2022/10/28 07:39:01;;;;;;;13.30;6.70;;;;;;;;;;5207414;28;20504;-68
2022/10/28 07:41:31;;;;;;;12.75;6.88;;;;;;;;;;5189449;28;20017;-68
2022/10/28 07:44:02;;;;;;;12.15;5.13;;;;;;;;;;5189314;28;20029;-67
2022/10/28 07:46:32;;;;;;;11.52;6.57;;;;;;;;;;5188792;28;20499;-67
2022/10/28 07:49:03;;;;;;;11.27;7.15;;;;;;;;;;5188671;28;20037;-67
2022/10/28 07:51:33;;;;;;;7.53;6.82;;;;;;;;;;5189017;28;20025;-68
2022/10/28 07:54:03;;;;;;;12.88;7.38;;;;;;;;;;5206428;28;20025;-67
2022/10/28 07:56:34;;;;;;;11.15;6.68;;;;;;;;;;5189069;28;20029;-67
2022/10/28 07:59:04;;;;;;;18.63;8.70;;;;;;;;;;5206168;28;20022;-67
2022/10/28 08:01:34;;;;;;;13.07;6.50;;;;;;;;;;5188649;28;20022;-68
2022/10/28 08:04:05;;;;;;;6.35;5.78;;;;;;;;;;5188684;28;20018;-67
2022/10/28 08:06:35;;;;;;;13.65;5.47;;;;;;;;;;5188567;28;20110;-67
2022/10/28 08:09:05;;;;;;;7.05;6.22;;;;;;;;;;5188595;28;20612;-67
2022/10/28 08:11:36;;;;;;;6.32;5.72;;;;;;;;;;5205927;28;20388;-68
2022/10/28 08:14:06;;;;;;;12.13;6.85;;;;;;;;;;5188086;28;20060;-67
2022/10/28 08:16:36;;;;;;;7.57;6.60;;;;;;;;;;5188573;28;20489;-66
2022/10/28 08:19:09;;;;;;;7.22;6.30;;;;;;;;;;5188232;28;20014;-66
2022/10/28 08:21:40;;;;;;;7.10;5.68;;;;;;;;;;5188152;28;20508;-67
2022/10/28 08:24:10;;;;;;;7.13;6.43;;;;;;;;;;5187942;28;20022;-65
2022/10/28 08:26:43;;;;;;;8.38;6.78;;;;;;;;;;5188259;28;20385;-65
2022/10/28 08:29:14;;;;;;;9.80;6.63;;;;;;;;;;5188152;28;20436;-66
2022/10/28 08:31:44;;;;;;;6.07;5.32;;;;;;;;;;5188022;28;20013;-66
2022/10/28 08:34:14;;;;;;;7.97;6.85;;;;;;;;;;5187880;28;20576;-66
2022/10/28 08:36:45;;;;;;;9.10;6.43;;;;;;;;;;5187874;28;20017;-66
2022/10/28 08:39:15;;;;;;;12.77;6.65;;;;;;;;;;5205606;28;20385;-66
2022/10/28 08:42:04;;;;;;;7.60;5.70;;;;;;;;;;5187770;28;20060;-67
2022/10/28 08:44:53;;;;;;;6.75;6.03;;;;;;;;;;5187900;28;20027;-66
2022/10/28 08:47:32;;;;;;;7.80;6.72;;;;;;;;;;5187970;28;20112;-66
2022/10/28 08:50:09;;;;;;;8.68;7.85;;;;;;;;;;5187506;28;20040;-66
2022/10/28 08:52:57;;;;;;;7.50;6.07;;;;;;;;;;5204295;28;20025;-66
2022/10/28 08:55:34;;;;;;;7.18;6.47;;;;;;;;;;5205366;28;20018;-66
2022/10/28 08:58:11;;;;;;;9.23;6.40;;;;;;;;;;5205876;28;20032;-68
2022/10/28 09:00:43;;;;;;;13.00;7.32;;;;;;;;;;5205248;28;20013;-67
2022/10/28 09:03:16;;;;;;;6.10;5.43;;;;;;;;;;5186902;28;20030;-66
2022/10/28 09:05:48;;;;;;;9.10;5.82;;;;;;;;;;5187283;28;20025;-66
2022/10/28 09:08:21;;;;;;;14.77;7.82;;;;;;;;;;5187430;28;20029;-66
2022/10/28 09:10:58;;;;;;;12.68;6.40;;;;;;;;;;5187536;28;20026;-66
2022/10/28 09:13:35;;;;;;;8.43;6.03;;;;;;;;;;5205206;28;20378;-66
2022/10/28 09:16:13;;;;;;;7.88;7.18;;;;;;;;;;5187450;28;20034;-66
2022/10/28 09:18:49;;;;;;;8.15;7.20;;;;;;;;;;5203525;28;20033;-66
2022/10/28 09:21:34;;;;;;;14.05;6.40;;;;;;;;;;5186976;28;20014;-66
2022/10/28 09:24:17;;;;;;;6.75;6.20;;;;;;;;;;5187232;28;20473;-66
2022/10/28 09:26:48;;;;;;;7.00;6.32;;;;;;;;;;5186776;28;20076;-66
2022/10/28 09:29:25;;;;;;;15.38;6.13;;;;;;;;;;5187072;28;20477;-66
2022/10/28 09:32:14;;;;;;;6.45;5.85;;;;;;;;;;5202679;28;20033;-66
2022/10/28 09:34:49;;;;;;;6.40;5.80;;;;;;;;;;5187656;28;20120;-66
2022/10/28 09:37:31;;;;;;;7.55;6.78;;;;;;;;;;5188258;28;20060;-67
2022/10/28 09:40:06;;;;;;;10.35;5.20;;;;;;;;;;5188183;28;20021;-67
2022/10/28 09:43:03;;;;;;;11.85;6.82;;;;;;;;;;5187222;28;20067;-66
2022/10/28 09:45:36;;;;;;;13.48;6.43;;;;;;;;;;5164126;28;20512;-66
2022/10/28 09:48:16;;;;;;;8.60;7.30;;;;;;;;;;5186776;28;20061;-66
2022/10/28 09:50:49;;;;;;;7.75;6.32;;;;;;;;;;5186996;28;20102;-66
2022/10/28 09:53:32;;;;;;;12.35;6.40;;;;;;;;;;5204546;28;20489;-66
2022/10/28 09:56:03;;;;;;;23.63;7.28;;;;;;;;;;5186946;28;20014;-66
2022/10/28 09:58:34;;;;;;;6.13;5.50;;;;;;;;;;5187364;28;20030;-65
2022/10/28 10:01:04;;;;;;;8.85;6.15;;;;;;;;;;5203491;28;20010;-66
2022/10/28 10:03:35;;;;;;;7.15;5.13;;;;;;;;;;5186985;28;20083;-68
2022/10/28 10:06:12;;;;;;;7.53;6.63;;;;;;;;;;5204987;28;20393;-66
2022/10/28 10:08:44;;;;;;;5.50;4.85;;;;;;;;;;5186900;28;20453;-68
2022/10/28 10:11:24;;;;;;;13.02;9.10;;;;;;;;;;5185710;28;20010;-66
2022/10/28 10:13:56;;;;;;;6.05;5.60;;;;;;;;;;5187008;28;20021;-66
2022/10/28 10:16:38;;;;;;;7.40;6.47;;;;;;;;;;5207484;28;20021;-66
2022/10/28 10:19:10;;;;;;;10.73;5.05;;;;;;;;;;5190343;28;20091;-67
2022/10/28 10:21:42;;;;;;;8.77;4.55;;;;;;;;;;5190952;28;20474;-66
2022/10/28 10:24:24;;;;;;;6.50;4.88;;;;;;;;;;5190614;28;20021;-67
2022/10/28 10:26:55;;;;;;;6.30;5.38;;;;;;;;;;5191237;28;20022;-67
2022/10/28 10:29:26;;;;;;;7.43;5.82;;;;;;;;;;5189194;28;20025;-66
2022/10/28 10:32:17;;;;;;;9.90;5.28;;;;;;;;;;5208669;28;20049;-66
2022/10/28 10:34:56;;;;;;;10.55;6.55;;;;;;;;;;5190615;28;20014;-67
2022/10/28 10:37:27;;;;;;;13.17;5.97;;;;;;;;;;5190953;28;20029;-67
2022/10/28 10:39:59;;;;;;;8.07;6.05;;;;;;;;;;5190345;28;20095;-67
2022/10/28 10:42:29;;;;;;;29.00;6.75;;;;;;;;;;5208301;28;20014;-67
2022/10/28 10:45:20;;;;;;;11.90;6.32;;;;;;;;;;5190376;28;20492;-67
2022/10/28 10:48:09;;;;;;;7.05;6.35;;;;;;;;;;5188721;28;20033;-67
2022/10/28 10:50:41;;;;;;;12.10;7.03;;;;;;;;;;5190524;28;20033;-67
2022/10/28 10:53:19;;;;;;;6.57;5.75;;;;;;;;;;5190203;28;20018;-67
2022/10/28 10:56:00;;;;;;;14.35;5.80;;;;;;;;;;5190248;28;20104;-66
2022/10/28 10:58:35;;;;;;;4.85;4.28;;;;;;;;;;5189966;28;20062;-65
2022/10/28 11:01:06;;;;;;;10.40;6.22;;;;;;;;;;5207426;28;20079;-66
2022/10/28 11:03:37;;;;;;;5.57;5.10;;;;;;;;;;5206191;28;20028;-65
2022/10/28 11:06:17;;;;;;;9.32;4.80;;;;;;;;;;5190013;28;20021;-67
2022/10/28 11:08:47;;;;;;;6.78;5.55;;;;;;;;;;5208010;28;20405;-65
2022/10/28 11:11:19;;;;;;;7.30;4.60;;;;;;;;;;5189606;28;20037;-66
2022/10/28 11:14:01;;;;;;;8.85;5.55;;;;;;;;;;5189698;28;20453;-67
2022/10/28 11:16:31;;;;;;;15.48;7.50;;;;;;;;;;5190270;28;20545;-67
2022/10/28 11:19:14;;;;;;;9.07;5.80;;;;;;;;;;5189944;28;20100;-66
2022/10/28 11:21:50;;;;;;;6.20;5.70;;;;;;;;;;5189830;28;20111;-66
2022/10/28 11:24:20;;;;;;;10.55;5.75;;;;;;;;;;5205774;28;20026;-67
2022/10/28 11:27:09;;;;;;;13.82;5.47;;;;;;;;;;5189383;28;20030;-66
2022/10/28 11:29:40;;;;;;;7.30;6.50;;;;;;;;;;5189182;28;20068;-66
2022/10/28 11:32:10;;;;;;;6.93;6.22;;;;;;;;;;5189456;28;20049;-66
2022/10/28 11:34:53;;;;;;;9.27;5.47;;;;;;;;;;5189503;28;20104;-67
2022/10/28 11:37:23;;;;;;;7.38;5.60;;;;;;;;;;5207261;28;20045;-65
2022/10/28 11:40:06;;;;;;;15.23;6.40;;;;;;;;;;5189558;28;20060;-67
2022/10/28 11:42:39;;;;;;;9.38;4.65;;;;;;;;;;5189555;28;20025;-66
2022/10/28 11:45:09;;;;;;;7.82;5.22;;;;;;;;;;5188691;28;20120;-68
2022/10/28 11:48:02;;;;;;;12.48;6.13;;;;;;;;;;5189662;28;20116;-66
2022/10/28 11:50:32;;;;;;;8.52;7.45;;;;;;;;;;5189002;28;20028;-66
2022/10/28 11:53:09;;;;;;;18.00;6.07;;;;;;;;;;5206515;28;20025;-66
2022/10/28 11:55:58;;;;;;;7.28;4.80;;;;;;;;;;5188946;28;20103;-67
2022/10/28 11:58:52;;;;;;;11.45;5.30;;;;;;;;;;5189030;28;20116;-66
2022/10/28 12:01:30;;;;;;;9.30;7.05;;;;;;;;;;5188305;28;20025;-66
2022/10/28 12:04:19;;;;;;;14.70;4.45;;;;;;;;;;5188903;28;20021;-66
2022/10/28 12:07:01;;;;;;;5.10;4.68;;;;;;;;;;5188670;28;20048;-68
2022/10/28 12:09:40;;;;;;;7.70;6.05;;;;;;;;;;5188791;28;20049;-66
2022/10/28 12:12:20;;;;;;;10.65;6.30;;;;;;;;;;5184234;28;20064;-67
2022/10/28 12:14:56;;;;;;;6.35;5.80;;;;;;;;;;5166746;28;20566;-66
2022/10/28 12:17:33;;;;;;;6.25;4.45;;;;;;;;;;5168310;28;20021;-66
2022/10/28 12:20:10;;;;;;;11.35;7.28;;;;;;;;;;5178671;28;20041;-66
2022/10/28 12:22:46;;;;;;;5.78;5.18;;;;;;;;;;5188515;28;20076;-66
2022/10/28 12:25:18;;;;;;;14.38;6.40;;;;;;;;;;5188390;28;20392;-65
2022/10/28 12:27:50;;;;;;;5.60;5.10;;;;;;;;;;5206345;28;20100;-66
2022/10/28 12:30:20;;;;;;;10.48;5.80;;;;;;;;;;5188136;28;20044;-68
2022/10/28 12:32:53;;;;;;;10.60;5.45;;;;;;;;;;5187928;28;20048;-66
2022/10/28 12:35:26;;;;;;;7.57;5.68;;;;;;;;;;5205824;28;20496;-65
2022/10/28 12:37:59;;;;;;;7.22;6.47;;;;;;;;;;5187753;28;20017;-65
2022/10/28 12:40:49;;;;;;;14.85;6.63;;;;;;;;;;5206060;28;20204;-65
2022/10/28 12:43:26;;;;;;;9.52;6.03;;;;;;;;;;5187823;28;20029;-65
2022/10/28 12:45:56;;;;;;;7.00;5.82;;;;;;;;;;5206407;28;20032;-66
2022/10/28 12:51:22;;;;;;;12.73;5.90;;;;;;;;;;5242418;28;20050;-64
2022/10/28 12:53:59;;;;;;;38.50;6.68;;;;;;;;;;5243280;28;20100;-65
2022/10/28 12:56:39;;;;;;;8.38;5.35;;;;;;;;;;5223885;28;20013;-65
2022/10/28 12:59:14;;;;;;;12.93;6.53;;;;;;;;;;5223825;28;20548;-66
2022/10/28 13:01:45;;;;;;;10.18;5.47;;;;;;;;;;5223549;28;20044;-66
2022/10/28 13:04:16;;;;;;;15.88;6.15;;;;;;;;;;5223378;28;20029;-66
2022/10/28 13:06:46;;;;;;;14.93;5.95;;;;;;;;;;5222982;28;20392;-64
2022/10/28 13:09:25;;;;;;;8.18;5.50;;;;;;;;;;5222409;28;20017;-65
2022/10/28 13:11:56;;;;;;;;;;;;;;;;;;5222366;28;20094;-65
2022/10/28 13:14:45;;;;;;;7.15;5.13;;;;;;;;;;5222103;28;20326;-65
2022/10/28 13:17:21;;;;;;;5.93;4.38;;;;;;;;;;5223079;28;20156;-65
2022/10/28 13:20:00;;;;;;;8.63;4.13;;;;;;;;;;5222747;28;20511;-65
2022/10/28 13:22:49;;;;;;;7.97;4.35;;;;;;;;;;5222322;28;20029;-65
2022/10/28 13:25:42;;;;;;;8.73;5.07;;;;;;;;;;5222058;28;20079;-65
2022/10/28 13:28:14;;;;;;;25.20;6.78;;;;;;;;;;5221693;28;20029;-65
2022/10/28 13:31:11;;;;;;;17.88;5.30;;;;;;;;;;5222385;28;20165;-64
2022/10/28 13:33:47;;;;;;;8.85;4.43;;;;;;;;;;5220162;28;20044;-65
2022/10/28 13:36:25;;;;;;;12.88;5.32;;;;;;;;;;5223305;28;20017;-66
2022/10/28 13:38:58;;;;;;;15.80;5.65;;;;;;;;;;5222951;28;20075;-65
2022/10/28 13:41:35;;;;;;;23.05;5.75;;;;;;;;;;5222168;28;20461;-65
2022/10/28 13:44:05;;;;;;;6.80;6.20;;;;;;;;;;5220578;28;20480;-65
2022/10/28 13:46:54;;;;;;;8.77;4.83;;;;;;;;;;5221835;28;20155;-65
2022/10/28 13:49:25;;;;;;;20.92;6.35;;;;;;;;;;5241998;28;20283;-65
2022/10/28 13:52:12;;;;;;;9.48;5.63;;;;;;;;;;5246943;28;20028;-65
2022/10/28 13:54:42;;;;;;;8.05;5.43;;;;;;;;;;5246407;28;20028;-65
2022/10/28 13:57:17;;;;;;;11.57;5.27;;;;;;;;;;5246817;28;20026;-65
2022/10/28 13:59:50;;;;;;;10.38;5.88;;;;;;;;;;5248114;28;20723;-65
2022/10/28 14:02:23;;;;;;;13.35;7.95;;;;;;;;;;5246345;28;20493;-65
2022/10/28 14:04:55;;;;;;;17.70;6.28;;;;;;;;;;5236075;28;20353;-65
2022/10/28 14:07:32;;;;;;;6.63;5.97;;;;;;;;;;5246311;28;20337;-65
2022/10/28 14:10:21;;;;;;;5.75;4.68;;;;;;;;;;5246205;28;20028;-62
2022/10/28 14:13:02;;;;;;;9.80;6.85;;;;;;;;;;5246472;28;20407;-65
2022/10/28 14:15:39;;;;;;;3.53;3.28;;;;;;;;;;5246206;28;20431;-65
2022/10/28 14:18:13;;;;;;;4.30;3.75;;;;;;;;;;5244178;28;20107;-65
2022/10/28 14:20:46;;;;;;;9.73;5.95;;;;;;;;;;5245386;28;20480;-65
2022/10/28 14:23:19;;;;;;;7.90;4.88;;;;;;;;;;5245982;28;20484;-65
2022/10/28 14:25:49;;;;;;;11.77;6.95;;;;;;;;;;5246095;28;20392;-65
2022/10/28 14:28:26;;;;;;;6.80;4.43;;;;;;;;;;5246685;28;20017;-66
2022/10/28 14:31:11;;;;;;;16.05;6.28;;;;;;;;;;5246724;28;20383;-65
2022/10/28 14:33:42;;;;;;;6.10;4.93;;;;;;;;;;5247891;28;20487;-65
2022/10/28 14:36:18;;;;;;;5.78;5.40;;;;;;;;;;5246940;28;20103;-66
2022/10/28 14:38:52;;;;;;;5.45;5.05;;;;;;;;;;5246666;28;20021;-64
2022/10/28 14:41:22;;;;;;;7.18;6.07;;;;;;;;;;5246221;28;20139;-64
2022/10/28 14:43:59;;;;;;;14.88;6.85;;;;;;;;;;5246283;28;20021;-64
2022/10/28 14:46:35;;;;;;;6.03;4.82;;;;;;;;;;5246776;28;20399;-66
2022/10/28 14:49:15;;;;;;;9.52;5.72;;;;;;;;;;5246595;28;20060;-63
2022/10/28 14:51:46;;;;;;;9.10;4.60;;;;;;;;;;5246578;28;20017;-64
2022/10/28 14:54:37;;;;;;;5.88;4.65;;;;;;;;;;5247673;28;20357;-64
2022/10/28 14:57:07;;;;;;;8.35;6.20;;;;;;;;;;5246389;28;20047;-65
2022/10/28 14:59:44;;;;;;;7.57;5.28;;;;;;;;;;5246678;28;20013;-64
2022/10/28 15:02:17;;;;;;;18.48;7.07;;;;;;;;;;5245992;28;20029;-65
2022/10/28 15:04:56;;;;;;;8.95;6.07;;;;;;;;;;5246095;28;20051;-66
2022/10/28 15:07:26;;;;;;;4.97;4.45;;;;;;;;;;5241841;28;20028;-66
2022/10/28 15:09:57;;;;;;;18.08;5.30;;;;;;;;;;5245888;28;20017;-66
2022/10/28 15:12:28;;;;;;;10.93;5.47;;;;;;;;;;5245792;28;20116;-65
2022/10/28 15:14:58;;;;;;;6.65;5.38;;;;;;;;;;5245535;28;20499;-64
2022/10/28 15:17:38;;;;;;;6.88;6.10;;;;;;;;;;5233926;28;20104;-64
2022/10/28 15:20:25;;;;;;;11.57;4.93;;;;;;;;;;5225139;28;20083;-63